• Join FlightAware (Why Join?)
  • Login
  • US Flag 
02:31PM EDT


 

Airport Tracker/Info


-or-


 

Live Flight TrackerFlight Track Log ✈ N960DL ✈ 29-Apr-2013 ✈ KHOU - KATL

Flight Track Log - Related Links

Times and Time Zones

All times are in EDT time to prevent confusion due to time zone crossing. See the N960DL flight status page for this flight to view local times or setup timezone preferences in your user account.

Time Position Orientation Groundspeed Altitude Reporting Facility
EDT Latitude Longitude Course Direction KTS MPH feet Rate Location/Type
08:18AM 29.6333 -95.2678 86° East 152 175 600  Level Houston Center
08:18AM 29.6239 -95.2569 135° Southeast 152 175 1,300 1,260 Climbing Houston Center
08:19AM 29.5914 -95.2311 145° Southeast 255 293 2,100 2,340 Climbing Houston Center
08:20AM 29.5689 -95.1475 107° East 274 315 5,700 3,360 Climbing Houston Center
08:21AM 29.8057 -94.9014 82° East  Level Estimated
08:21AM 29.5778 -95.0631 83° East 273 314 9,000  Level Houston Center
08:22AM 29.8589 -94.7753 79° East  Level Estimated
08:22AM 29.5914 -94.9697 80° East 292 336 11,000  Level Houston Center
08:23AM 29.9120 -94.6491 86° East  Level Estimated
08:23AM 29.6144 -94.8564 77° East 353 406 12,700  Level Houston Center
08:24AM 29.6383 -94.7314 78° East 394 453 15,100 2,340 Climbing Houston Center
08:25AM 29.6656 -94.5997 77° East 420 483 17,600 2,340 Climbing Houston Center
08:26AM 29.6942 -94.4636 76° East 436 502 19,900 2,220 Climbing Houston Center
08:27AM 29.7136 -94.2947 82° East 451 519 22,200 1,800 Climbing Houston Center
08:28AM 29.6978 -94.1469 97° East 471 542 23,700 1,860 Climbing Houston Center
08:29AM 29.6850 -93.9964 96° East 474 545 26,000 2,040 Climbing Houston Center
08:30AM 29.6853 -93.8489 90° East 465 535 28,000 1,440 Climbing Houston Center
08:31AM 29.6839 -93.6983 91° East 470 541 29,000 1,200 Climbing Houston Center
08:32AM 29.6825 -93.5458 91° East 477 549 30,500 1,260 Climbing Houston Center
08:33AM 29.6803 -93.3633 91° East 479 551 31,600 1,020 Climbing Houston Center
08:34AM 29.6786 -93.2133 91° East 475 547 32,700 1,020 Climbing Houston Center
08:35AM 29.6761 -93.0628 91° East 475 547 33,800 900 Climbing Houston Center
08:36AM 29.6742 -92.9111 91° East 477 549 34,600 540 Climbing Houston Center
08:37AM 29.6719 -92.7611 91° East 475 547 35,000 180 Climbing Houston Center
08:38AM 29.6692 -92.6103 91° East 475 547 35,000  Level Houston Center
08:39AM 29.6669 -92.4589 91° East 474 545 35,000  Level Houston Center
08:41AM 29.6728 -92.2764 88° East 477 549 35,000  Level Houston Center
08:42AM 29.6867 -92.1233 84° East 481 554 35,000  Level Houston Center
08:43AM 29.7003 -91.9717 84° East 479 551 35,000  Level Houston Center
08:44AM 29.7122 -91.8200 85° East 478 550 35,000  Level Houston Center
08:45AM 29.7256 -91.6628 84° East 483 556 35,000  Level Houston Center
08:46AM 29.7389 -91.5089 84° East 484 557 35,000  Level Houston Center
08:47AM 29.7517 -91.3553 84° East 485 558 35,000  Level Houston Center
08:48AM 29.7647 -91.2019 84° East 483 556 35,000 -720 Level Houston Center
08:49AM 29.8133 -91.0292 72° East 478 550 33,600 -1,020 Descending Houston Center
08:50AM 29.8811 -90.9011 59° Northeast 469 540 33,000 -300 Descending Houston Center
08:51AM 29.9481 -90.7717 59° Northeast 472 543 33,000  Level Houston Center
08:52AM 30.0136 -90.6403 60° Northeast 473 544 33,000  Level Houston Center
08:53AM 30.0808 -90.5106 59° Northeast 472 543 33,000  Level Houston Center
08:54AM 30.1469 -90.3789 60° Northeast 473 544 33,000  Level Houston Center
08:55AM 30.2164 -90.2447 59° Northeast 483 556 33,000  Level Houston Center
08:56AM 30.2881 -90.1125 58° Northeast 483 556 33,000  Level Houston Center
08:57AM 30.3742 -89.9547 58° Northeast 481 554 33,000  Level Houston Center
08:58AM 30.4492 -89.8169 58° Northeast 488 562 33,000  Level Houston Center
08:59AM 30.5236 -89.6800 58° Northeast 491 565 33,000  Level Houston Center
09:00AM 30.5969 -89.5444 58° Northeast 492 566 33,000  Level Houston Center
09:01AM 30.6692 -89.4100 58° Northeast 491 565 33,000  Level Houston Center
09:02AM 30.7406 -89.2750 58° Northeast 490 564 33,000  Level Houston Center
09:03AM 30.8106 -89.1406 59° Northeast 487 560 33,000  Level Houston Center
09:04AM 30.8814 -89.0058 58° Northeast 489 563 33,000  Level Houston Center
09:05AM 30.9567 -88.8628 58° Northeast 488 562 33,000  Level Houston Center
09:06AM 31.0292 -88.7275 58° Northeast 489 563 33,000  Level Houston Center
09:07AM 31.1086 -88.5750 59° Northeast 487 560 33,000  Level Houston Center
09:08AM 31.1794 -88.4397 59° Northeast 489 563 33,000  Level Houston Center
09:09AM 31.2453 -88.3186 58° Northeast 487 560 33,000  Level Houston Center
09:10AM 31.2756 -88.2683 55° Northeast 467 537 33,000  Level Atlanta Center
09:11AM 31.3517 -88.1189 59° Northeast 472 543 33,000  Level Atlanta Center
09:12AM 31.4228 -87.9833 58° Northeast 480 552 33,000  Level Atlanta Center
09:13AM 31.4958 -87.8478 58° Northeast 480 552 33,000  Level Atlanta Center
09:14AM 31.5731 -87.7169 55° Northeast 485 558 33,000 -120 Level Atlanta Center
09:15AM 31.6542 -87.5836 54° Northeast 491 565 32,800 -600 Descending Atlanta Center
09:16AM 31.7286 -87.4594 55° Northeast 491 565 31,800 -1,080 Descending Atlanta Center
09:17AM 31.8006 -87.3400 55° Northeast 461 531 30,700 -1,260 Descending Atlanta Center
09:18AM 31.8597 -87.2397 55° Northeast 438 504 29,300 -1,440 Descending Atlanta Center
09:19AM 31.8961 -87.1136 71° East 418 481 27,900 -1,500 Descending Atlanta Center
09:20AM 31.8953 -86.9817 90° East 398 458 26,300 -1,500 Descending Atlanta Center
09:21AM 31.9003 -86.8497 87° East 398 458 25,000 -660 Descending Atlanta Center
09:22AM 31.9053 -86.7200 87° East 398 458 25,000  Level Atlanta Center
09:23AM 31.9103 -86.5906 87° East 398 458 25,000 -540 Level Atlanta Center
09:24AM 31.9150 -86.4586 88° East 403 464 24,000 -540 Descending Atlanta Center
09:25AM 31.9194 -86.3292 88° East 403 464 24,000  Level Atlanta Center
09:26AM 31.9222 -86.1822 89° East 403 464 24,000  Level Atlanta Center
09:27AM 31.9222 -86.0528 90° East 403 464 24,000  Level Atlanta Center
09:28AM 31.9306 -85.9231 86° East 403 464 24,000 -240 Level Atlanta Center
09:29AM 31.9883 -85.8192 57° Northeast 382 440 23,600 -720 Descending Atlanta Center
09:30AM 32.0908 -85.8114 North 316 364 22,600 -960 Descending Atlanta Center
09:31AM 32.1814 -85.7542 28° Northeast 336 387 21,700 -1,200 Descending Atlanta Center
09:32AM 32.2719 -85.6969 28° Northeast 357 411 20,200 -1,680 Descending Atlanta Center
09:33AM 32.3686 -85.6372 28° Northeast 367 422 18,400 -1,140 Descending Atlanta Center
09:34AM 32.4614 -85.5775 29° Northeast 374 430 18,000 -240 Descending Atlanta Center
09:35AM 32.5519 -85.5150 30° Northeast 374 430 18,000  Level Atlanta Center
09:36AM 32.6403 -85.4450 34° Northeast 374 430 18,000  Level Atlanta Center
09:37AM 32.7286 -85.3772 33° Northeast 374 430 18,000  Level Atlanta Center
09:38AM 32.8150 -85.3067 34° Northeast 374 430 18,000 -600 Level Atlanta Center
09:39AM 32.9033 -85.2389 33° Northeast 374 430 16,900 -1,620 Descending Atlanta Center
09:40AM 32.9917 -85.1731 32° Northeast 374 430 14,800 -1,980 Descending Atlanta Center
09:41AM 33.0672 -85.1147 33° Northeast 369 425 13,000 -1,380 Descending Atlanta Center
09:42AM 33.1536 -85.0511 32° Northeast 352 405 12,100 -600 Descending Atlanta Center
09:43AM 33.2208 -84.9850 39° Northeast 328 377 11,800 -1,020 Descending Atlanta Center
09:44AM 33.2653 -84.8933 60° Northeast 307 353 10,100 -1,560 Descending Atlanta Center
09:45AM 33.3075 -84.8044 60° Northeast 307 353 8,700 -1,320 Descending Atlanta Center
09:46AM 33.3683 -84.7875 13° North 248 285 7,500 -1,500 Descending Atlanta Center
09:47AM 33.4167 -84.8167 333° Northwest 225 259 5,800 -1,680 Descending Atlanta TRACON
09:48AM 33.4667 -84.8500 331° Northwest 233 268 4,300 -900 Descending Atlanta TRACON
09:49AM 33.5333 -84.8333 12° North 221 254 4,000 -420 Descending Atlanta TRACON
09:50AM 33.5833 -84.8167 16° North 201 231 3,500 -540 Descending Atlanta TRACON
09:51AM 33.6167 -84.7500 59° Northeast 200 230 3,000 -300 Descending Atlanta TRACON
09:52AM 33.6167 -84.7000 90° East 187 215 3,000  Level Atlanta TRACON